Time;durP1;ratioP1;P1;durP2;ratioP2;P2;SDS_P1;SDS_P2;PMS_P1;PMS_P2;Temp;Humidity;BMP_temperature;BMP_pressure;BME280_temperature;BME280_humidity;BME280_pressure;Samples;Min_cycle;Max_cycle;Signal;HPM_P1;HPM_P2
2022/06/29 00:01:48;;;;;;;1.27;1.00;;;;;;;17.70;55.84;101773.97;10525742;28;20037;-75
2022/06/29 00:06:51;;;;;;;1.40;1.27;;;;;;;17.53;56.43;101777.28;10490246;28;20052;-76
2022/06/29 00:11:53;;;;;;;1.92;1.13;;;;;;;17.35;56.83;101778.91;10489110;28;20049;-75
2022/06/29 00:16:55;;;;;;;3.33;1.73;;;;;;;17.21;57.75;101786.34;10489023;28;20052;-76
2022/06/29 00:21:57;;;;;;;2.40;1.80;;;;;;;17.13;58.05;101786.97;10488482;28;20053;-75
2022/06/29 00:27:01;;;;;;;1.85;1.38;;;;;;;16.99;58.65;101784.09;10488534;28;20048;-74
2022/06/29 00:32:04;;;;;;;4.88;1.70;;;;;;;16.94;58.86;101791.66;10469690;28;20048;-75
2022/06/29 00:37:06;;;;;;;1.70;1.15;;;;;;;16.94;59.18;101784.16;10484142;28;20066;-73
2022/06/29 00:42:09;;;;;;;1.95;1.00;;;;;;;16.99;59.15;101769.41;10486649;28;20041;-74
2022/06/29 00:47:11;;;;;;;2.30;1.40;;;;;;;16.97;59.08;101775.25;10502556;28;20028;-73
2022/06/29 00:52:15;;;;;;;2.40;1.40;;;;;;;16.96;59.13;101787.47;10487561;28;20419;-73
2022/06/29 00:57:24;;;;;;;1.05;0.95;;;;;;;16.87;59.32;101781.78;10475959;28;20040;-74
2022/06/29 01:02:34;;;;;;;2.08;1.20;;;;;;;16.85;59.82;101770.16;10484135;28;20052;-73
2022/06/29 01:07:36;;;;;;;1.17;1.08;;;;;;;16.83;60.34;101768.78;10475854;28;20124;-73
2022/06/29 01:12:38;;;;;;;1.30;1.10;;;;;;;16.79;60.34;101763.00;10484855;28;20056;-74
2022/06/29 01:17:41;;;;;;;1.98;1.42;;;;;;;16.76;60.64;101755.28;10478761;28;20045;-74
2022/06/29 01:22:43;;;;;;;2.45;1.73;;;;;;;16.67;60.72;101751.53;10486349;28;20045;-74
2022/06/29 01:27:45;;;;;;;4.75;1.77;;;;;;;16.57;60.95;101749.66;10483230;28;20057;-73
2022/06/29 01:32:48;;;;;;;2.17;2.00;;;;;;;16.54;61.45;101746.66;10486109;28;20056;-73
2022/06/29 01:37:50;;;;;;;1.92;1.40;;;;;;;16.64;61.25;101740.16;10466702;28;20534;-73
2022/06/29 01:42:52;;;;;;;2.20;1.70;;;;;;;16.66;60.92;101737.91;10485395;28;20511;-74
2022/06/29 01:47:54;;;;;;;1.85;1.17;;;;;;;16.70;60.70;101739.03;10484594;28;20041;-74
2022/06/29 01:52:57;;;;;;;1.42;1.20;;;;;;;16.68;60.87;101746.81;10485849;28;20053;-74
2022/06/29 01:57:59;;;;;;;3.38;1.90;;;;;;;16.78;60.50;101744.72;10467643;28;20492;-74
2022/06/29 02:03:01;;;;;;;2.65;1.80;;;;;;;16.89;60.54;101745.44;10485154;28;20036;-74
2022/06/29 02:08:04;;;;;;;2.45;1.67;;;;;;;17.03;59.79;101735.25;10485441;28;20041;-74
2022/06/29 02:13:06;;;;;;;2.03;1.30;;;;;;;17.11;59.39;101726.25;10485455;28;20052;-74
2022/06/29 02:18:08;;;;;;;2.42;1.65;;;;;;;17.17;58.89;101719.50;10485757;28;20049;-74
2022/06/29 02:23:11;;;;;;;1.95;1.60;;;;;;;17.24;59.15;101732.19;10467433;28;20055;-74
2022/06/29 02:28:13;;;;;;;1.52;1.42;;;;;;;17.35;58.21;101723.41;10491476;28;20051;-74
2022/06/29 02:38:36;;;;;;;2.45;1.73;;;;;;;17.67;56.92;101736.50;10493348;28;20045;-74
2022/06/29 02:43:39;;;;;;;1.38;1.27;;;;;;;17.83;56.79;101730.75;10491871;28;20068;-74
2022/06/29 02:48:41;;;;;;;1.92;1.55;;;;;;;18.03;55.49;101719.28;10492732;28;20045;-74
2022/06/29 02:53:43;;;;;;;3.67;1.80;;;;;;;18.14;55.29;101731.88;10492231;28;20052;-74
2022/06/29 02:58:46;;;;;;;1.92;1.58;;;;;;;18.16;54.79;101726.81;10448658;28;20045;-74
2022/06/29 03:03:48;;;;;;;1.90;1.23;;;;;;;18.17;55.00;101725.69;10451164;28;20060;-74
2022/06/29 03:08:50;;;;;;;4.43;1.20;;;;;;;18.37;54.40;101728.09;10473815;28;20045;-74
2022/06/29 03:13:52;;;;;;;2.95;1.58;;;;;;;18.52;53.32;101712.25;10491654;28;20554;-74
2022/06/29 03:18:55;;;;;;;4.68;1.50;;;;;;;18.77;52.55;101717.34;10485126;28;20400;-74
2022/06/29 03:23:57;;;;;;;2.55;1.58;;;;;;;18.86;52.46;101709.06;10490139;28;20041;-74
2022/06/29 03:28:59;;;;;;;1.50;1.35;;;;;;;19.17;51.77;101723.13;10491057;28;20056;-74
2022/06/29 03:34:01;;;;;;;1.73;1.52;;;;;;;19.44;51.39;101723.06;10490173;28;20045;-74
2022/06/29 03:39:04;;;;;;;2.08;1.63;;;;;;;19.40;50.99;101716.47;10488841;28;20093;-74
2022/06/29 03:44:06;;;;;;;2.05;1.27;;;;;;;19.69;50.13;101718.03;10489653;28;20546;-74
2022/06/29 03:49:08;;;;;;;1.90;1.70;;;;;;;19.88;49.59;101708.34;10490578;28;20049;-74
2022/06/29 03:54:10;;;;;;;7.03;1.85;;;;;;;20.03;49.15;101704.34;10488787;28;20052;-75
2022/06/29 03:59:37;;;;;;;2.03;1.45;;;;;;;20.24;49.04;101703.78;10476561;28;20048;-75
2022/06/29 04:04:40;;;;;;;2.67;1.70;;;;;;;20.60;48.65;101701.66;10490224;28;20056;-75
2022/06/29 04:09:42;;;;;;;3.63;1.55;;;;;;;20.73;48.25;101700.72;10489449;28;20040;-75
2022/06/29 04:14:44;;;;;;;2.97;1.90;;;;;;;21.09;47.59;101696.84;10488226;28;20637;-75
2022/06/29 04:19:47;;;;;;;2.70;1.40;;;;;;;21.49;47.55;101699.53;10486513;28;20048;-75
2022/06/29 04:24:50;;;;;;;3.17;1.70;;;;;;;21.69;46.73;101696.03;10491049;28;20056;-75
2022/06/29 04:29:52;;;;;;;4.07;1.60;;;;;;;21.96;46.75;101709.66;10489029;28;20514;-75
2022/06/29 04:34:54;;;;;;;5.45;1.80;;;;;;;22.18;45.30;101705.00;10488523;28;20526;-75
2022/06/29 04:39:56;;;;;;;2.13;1.58;;;;;;;22.39;45.88;101697.56;10486378;28;20527;-75
2022/06/29 04:44:58;;;;;;;2.17;1.60;;;;;;;22.73;44.86;101701.31;10476926;28;20539;-74
2022/06/29 04:50:01;;;;;;;3.00;1.60;;;;;;;23.06;43.60;101693.06;10483407;28;20045;-75
2022/06/29 04:55:04;;;;;;;2.20;1.60;;;;;;;23.43;43.02;101692.13;10462459;28;20077;-75
2022/06/29 05:00:07;;;;;;;2.40;2.08;;;;;;;23.43;43.24;101691.31;10454067;28;20051;-75
2022/06/29 05:05:09;;;;;;;2.60;1.60;;;;;;;23.67;42.85;101691.44;10464057;28;20040;-75
2022/06/29 05:10:12;;;;;;;4.88;2.00;;;;;;;23.81;41.52;101690.31;10462940;28;20041;-75
2022/06/29 05:15:14;;;;;;;2.20;1.45;;;;;;;24.14;41.33;101690.28;10451508;28;20500;-75
2022/06/29 05:20:19;;;;;;;1.95;1.27;;;;;;;24.29;41.30;101690.44;10468285;28;20032;-75
2022/06/29 05:25:21;;;;;;;1.65;1.55;;;;;;;24.60;41.17;101697.47;10470672;28;20050;-75
2022/06/29 05:30:23;;;;;;;1.70;1.60;;;;;;;24.78;40.81;101689.63;10465565;28;20412;-74
2022/06/29 05:35:27;;;;;;;5.78;1.85;;;;;;;24.75;40.96;101685.53;10484534;28;20393;-74
2022/06/29 05:40:30;;;;;;;4.25;1.65;;;;;;;25.18;40.16;101687.75;10457650;28;20037;-77
2022/06/29 05:45:33;;;;;;;2.58;1.60;;;;;;;25.19;39.69;101682.94;10462744;28;20586;-76
2022/06/29 05:50:35;;;;;;;4.10;1.63;;;;;;;24.96;40.63;101674.97;10458528;28;20040;-77
2022/06/29 05:55:38;;;;;;;3.08;1.77;;;;;;;24.89;40.15;101682.38;10458779;28;20037;-77
2022/06/29 06:00:40;;;;;;;3.58;1.40;;;;;;;24.93;40.33;101672.88;10484242;28;20037;-76
2022/06/29 06:05:43;;;;;;;2.22;1.60;;;;;;;25.34;39.63;101672.91;10479218;28;20052;-76
2022/06/29 06:10:45;;;;;;;2.38;1.50;;;;;;;25.82;39.23;101669.09;10455215;28;20041;-76
2022/06/29 06:15:47;;;;;;;2.65;1.58;;;;;;;26.01;38.63;101666.41;10481512;28;20426;-76
2022/06/29 06:20:50;;;;;;;1.73;1.30;;;;;;;26.29;38.32;101665.53;10482736;28;20056;-76
2022/06/29 06:25:52;;;;;;;4.78;2.95;;;;;;;26.26;39.13;101667.06;10452594;28;20530;-77
2022/06/29 06:30:54;;;;;;;4.93;1.55;;;;;;;25.91;39.09;101671.75;10442884;28;20045;-77
2022/06/29 06:35:56;;;;;;;4.10;1.55;;;;;;;25.69;39.34;101657.13;10460414;28;20048;-77
2022/06/29 06:46:20;;;;;;;8.05;1.70;;;;;;;26.10;38.16;101657.81;10476344;28;20545;-77
2022/06/29 06:51:23;;;;;;;1.67;1.40;;;;;;;26.66;37.63;101649.16;10459493;28;20044;-77
2022/06/29 06:56:25;;;;;;;1.52;1.40;;;;;;;27.12;37.27;101640.97;10481968;28;20423;-77
2022/06/29 07:01:28;;;;;;;3.45;1.60;;;;;;;27.11;37.28;101642.97;10476204;28;20044;-77
2022/06/29 07:06:31;;;;;;;1.98;1.50;;;;;;;26.85;37.60;101646.38;10458516;28;20056;-77
2022/06/29 07:11:33;;;;;;;2.78;1.33;;;;;;;27.13;36.44;101643.41;10468610;28;20034;-77
2022/06/29 07:16:35;;;;;;;1.20;1.10;;;;;;;27.18;36.37;101640.31;10432715;28;20037;-76
2022/06/29 07:21:37;;;;;;;1.58;1.48;;;;;;;27.10;36.09;101640.53;10433547;28;20582;-77
2022/06/29 07:26:40;;;;;;;4.63;1.33;;;;;;;27.17;36.80;101649.94;10466684;28;20041;-77
2022/06/29 07:31:42;;;;;;;2.08;1.52;;;;;;;27.28;35.60;101639.72;10445336;28;20041;-76
2022/06/29 07:36:44;;;;;;;6.15;1.75;;;;;;;27.04;36.28;101638.00;10448906;28;20049;-76
2022/06/29 07:41:46;;;;;;;2.90;1.40;;;;;;;26.95;36.49;101661.91;10459829;28;20059;-76
2022/06/29 07:46:49;;;;;;;0.98;0.85;;;;;;;27.26;35.40;101661.81;10450630;28;20045;-76
2022/06/29 07:51:54;;;;;;;1.23;1.20;;;;;;;27.57;35.15;101637.47;10449023;28;20038;-76
2022/06/29 07:56:56;;;;;;;2.78;1.20;;;;;;;27.63;34.62;101639.66;10470590;28;20033;-76
2022/06/29 08:02:04;;;;;;;1.42;1.10;;;;;;;27.62;33.71;101634.34;10444941;28;20561;-76
2022/06/29 08:07:06;;;;;;;3.15;1.58;;;;;;;27.78;34.22;101632.28;10448734;28;20041;-76
2022/06/29 08:12:09;;;;;;;1.80;1.17;;;;;;;27.87;34.11;101621.53;10488607;28;20063;-76
2022/06/29 08:17:11;;;;;;;1.27;1.05;;;;;;;28.08;33.75;101640.03;10432021;28;20056;-76
2022/06/29 08:22:13;;;;;;;1.70;1.40;;;;;;;28.07;33.02;101650.50;10451839;28;20033;-76
2022/06/29 08:27:20;;;;;;;3.03;1.50;;;;;;;27.88;32.86;101637.28;10479931;28;20041;-76
2022/06/29 08:32:22;;;;;;;2.55;1.38;;;;;;;27.92;32.43;101626.88;10478644;28;20519;-76
2022/06/29 08:37:25;;;;;;;2.00;1.20;;;;;;;28.03;31.80;101620.63;10469286;28;20060;-76
2022/06/29 08:42:27;;;;;;;1.63;1.08;;;;;;;28.15;31.81;101629.72;10475835;28;20060;-76
2022/06/29 08:47:29;;;;;;;6.15;1.60;;;;;;;28.24;31.67;101623.78;10455876;28;20057;-77
2022/06/29 08:52:35;;;;;;;2.97;1.20;;;;;;;28.00;31.30;101622.19;10470799;28;20411;-75
2022/06/29 08:57:38;;;;;;;2.22;1.13;;;;;;;28.09;31.26;101619.09;10457947;28;20504;-75
2022/06/29 09:02:41;;;;;;;2.00;1.05;;;;;;;28.41;30.46;101626.13;10449737;28;20038;-76
2022/06/29 09:07:43;;;;;;;4.30;1.30;;;;;;;28.20;29.05;101617.28;10446996;28;20068;-76
2022/06/29 09:12:51;;;;;;;1.77;1.17;;;;;;;28.33;29.43;101615.91;10485629;28;20060;-76
2022/06/29 09:17:53;;;;;;;1.08;0.98;;;;;;;28.06;30.58;101605.75;10467648;28;20048;-76
2022/06/29 09:22:57;;;;;;;4.25;1.40;;;;;;;28.02;30.81;101605.69;10468262;28;20542;-76
2022/06/29 09:27:59;;;;;;;2.28;1.35;;;;;;;27.94;30.40;101623.66;10449210;28;20048;-76
2022/06/29 09:33:05;;;;;;;2.03;1.08;;;;;;;27.28;30.78;101627.63;10433315;28;20057;-74
2022/06/29 09:38:24;;;;;;;3.97;1.10;;;;;;;26.48;31.16;101612.16;10465966;28;20052;-75
2022/06/29 09:43:27;;;;;;;1.30;1.20;;;;;;;26.18;32.70;101610.97;10467646;28;20451;-75
2022/06/29 09:48:31;;;;;;;1.17;0.73;;;;;;;25.99;33.18;101615.31;10444968;28;20078;-74
2022/06/29 09:53:38;;;;;;;1.40;1.02;;;;;;;25.76;32.10;101614.31;10469259;28;20049;-78
2022/06/29 09:58:42;;;;;;;2.20;2.00;;;;;;;25.62;33.72;101616.72;10458307;28;20045;-76
2022/06/29 10:03:46;;;;;;;1.63;1.20;;;;;;;25.39;33.77;101608.06;10464416;28;20055;-74
2022/06/29 10:08:48;;;;;;;1.73;1.60;;;;;;;25.31;33.06;101612.63;10462527;28;20057;-74
2022/06/29 10:13:55;;;;;;;1.23;1.13;;;;;;;25.33;33.03;101626.31;10477416;28;20048;-75
2022/06/29 10:19:19;;;;;;;1.63;1.42;;;;;;;25.31;32.91;101623.06;10449886;28;20064;-75
2022/06/29 10:24:21;;;;;;;1.52;1.42;;;;;;;25.39;33.42;101614.50;10483689;28;20048;-76
2022/06/29 10:29:24;;;;;;;1.98;1.13;;;;;;;25.41;33.46;101623.38;10472496;28;20045;-74
2022/06/29 10:34:30;;;;;;;2.40;1.48;;;;;;;25.51;33.16;101622.03;10483757;28;20048;-74
2022/06/29 10:39:34;;;;;;;2.63;1.10;;;;;;;25.49;33.93;101616.75;10483694;28;20048;-77
2022/06/29 10:44:58;;;;;;;1.23;0.90;;;;;;;25.39;33.69;101616.47;10466356;28;20058;-75
2022/06/29 10:50:16;;;;;;;1.70;1.20;;;;;;;25.31;34.33;101618.25;10451199;28;20539;-76
2022/06/29 10:55:19;;;;;;;2.45;1.33;;;;;;;25.26;34.52;101607.28;10479027;28;20047;-75
2022/06/29 11:00:35;;;;;;;2.15;1.42;;;;;;;25.28;34.06;101599.31;10490759;28;20056;-75
2022/06/29 11:16:30;;;;;;;2.15;1.40;;;;;;;25.15;34.80;101583.69;10502279;28;20517;-75
2022/06/29 11:21:32;;;;;;;1.52;1.10;;;;;;;25.22;34.80;101575.47;10485327;28;20064;-74
2022/06/29 11:26:35;;;;;;;1.80;1.60;;;;;;;25.27;34.15;101577.19;10465848;28;20033;-73
2022/06/29 11:31:37;;;;;;;1.98;1.20;;;;;;;25.30;34.60;101577.28;10485065;28;20048;-73
2022/06/29 11:36:39;;;;;;;3.13;1.40;;;;;;;25.30;34.27;101577.28;10453864;28;20411;-74
2022/06/29 11:47:09;;;;;;;;;;;;;;;25.30;34.43;101576.47;10487601;28;20052;-74
2022/06/29 11:52:13;;;;;;;1.50;1.23;;;;;;;25.28;33.12;101578.84;10488603;28;19928;-74
2022/06/29 11:57:17;;;;;;;1.98;1.40;;;;;;;25.23;34.33;101572.31;10477768;28;20037;-75
2022/06/29 12:02:19;;;;;;;1.67;1.10;;;;;;;25.24;34.69;101567.50;10414326;28;20720;-76
2022/06/29 12:07:22;;;;;;;2.05;1.52;;;;;;;25.23;34.91;101566.69;10448914;28;20049;-76
2022/06/29 12:12:24;;;;;;;2.42;1.83;;;;;;;25.22;34.70;101581.09;10450187;28;20496;-76
2022/06/29 12:17:26;;;;;;;1.70;1.60;;;;;;;25.20;35.47;101566.59;10448050;28;20044;-76
2022/06/29 12:22:28;;;;;;;1.75;1.60;;;;;;;25.28;35.59;101557.16;10430901;28;20045;-76
2022/06/29 12:27:31;;;;;;;2.60;1.63;;;;;;;25.27;35.52;101569.59;10448051;28;20061;-76
2022/06/29 12:32:33;;;;;;;2.08;1.60;;;;;;;25.29;34.40;101558.00;10447464;28;20045;-76
2022/06/29 12:37:35;;;;;;;1.65;1.30;;;;;;;25.33;35.07;101554.09;10430035;28;20042;-75
2022/06/29 12:42:39;;;;;;;1.83;1.33;;;;;;;25.28;33.73;101551.56;10446576;28;20063;-75
2022/06/29 12:47:41;;;;;;;2.15;1.38;;;;;;;25.20;33.97;101570.22;10436039;28;20048;-76
2022/06/29 12:52:46;;;;;;;1.27;1.17;;;;;;;25.15;34.30;101559.22;10484865;28;20045;-76
2022/06/29 12:57:48;;;;;;;1.67;1.38;;;;;;;25.16;34.27;101549.59;10485765;28;20523;-76
2022/06/29 13:02:51;;;;;;;2.83;1.30;;;;;;;25.15;34.07;101541.53;10471810;28;20053;-76
2022/06/29 13:07:53;;;;;;;2.90;1.63;;;;;;;25.18;34.15;101540.84;10484229;28;20053;-76
2022/06/29 13:12:55;;;;;;;1.50;1.40;;;;;;;25.22;34.36;101541.75;10463018;28;20044;-73
2022/06/29 13:17:58;;;;;;;1.63;1.25;;;;;;;25.24;34.03;101534.59;10470101;28;20052;-78
2022/06/29 13:23:00;;;;;;;3.20;1.40;;;;;;;25.32;33.88;101527.19;10467766;28;20052;-77
2022/06/29 13:28:03;;;;;;;4.20;1.35;;;;;;;25.28;34.68;101531.06;10481975;28;20040;-75
2022/06/29 13:33:06;;;;;;;1.95;1.60;;;;;;;25.18;33.76;101529.63;10482846;28;20032;-76
2022/06/29 13:38:13;;;;;;;2.33;1.27;;;;;;;25.20;33.70;101516.03;10469062;28;20038;-78
2022/06/29 13:43:15;;;;;;;;;;;;;;;25.20;34.91;101513.22;10461952;28;20053;-78
2022/06/29 13:48:17;;;;;;;1.70;1.40;;;;;;;25.15;34.79;101507.84;10465631;28;19924;-75
2022/06/29 13:53:20;;;;;;;1.85;1.30;;;;;;;25.14;35.76;101500.59;10478412;28;20415;-76
2022/06/29 13:58:22;;;;;;;3.95;1.48;;;;;;;25.12;35.66;101502.94;10477426;28;20052;-76
2022/06/29 14:03:25;;;;;;;1.25;0.98;;;;;;;25.04;35.19;101503.94;10472100;28;20041;-77
2022/06/29 14:08:27;;;;;;;2.97;1.50;;;;;;;25.01;34.90;101510.28;10482113;28;20056;-78
2022/06/29 14:13:29;;;;;;;2.28;1.10;;;;;;;24.93;35.21;101483.94;10478086;28;20049;-78
2022/06/29 14:18:31;;;;;;;2.45;1.50;;;;;;;24.92;35.60;101499.16;10465788;28;20040;-78
2022/06/29 14:23:34;;;;;;;3.92;1.20;;;;;;;24.85;36.17;101482.94;10477327;28;20056;-79
2022/06/29 14:28:36;;;;;;;4.68;1.80;;;;;;;24.79;35.28;101478.72;10469866;28;20055;-78
2022/06/29 14:33:38;;;;;;;1.58;1.48;;;;;;;24.72;36.17;101484.16;10477434;28;20036;-78
2022/06/29 14:38:41;;;;;;;1.90;1.60;;;;;;;24.67;36.60;101484.41;10477950;28;20057;-79
2022/06/29 14:43:43;;;;;;;3.08;1.48;;;;;;;24.63;36.39;101466.63;10491292;28;20059;-79
2022/06/29 14:48:48;;;;;;;1.77;1.55;;;;;;;24.60;35.71;101476.59;10473632;28;20491;-78
2022/06/29 14:53:50;;;;;;;1.45;1.27;;;;;;;24.59;36.75;101486.19;10491053;28;20048;-80
2022/06/29 14:58:53;;;;;;;2.08;1.63;;;;;;;24.55;37.73;101467.59;10489148;28;20032;-79
2022/06/29 15:03:55;;;;;;;1.50;1.40;;;;;;;24.55;37.44;101484.44;10476795;28;20048;-80
2022/06/29 15:08:57;;;;;;;2.95;0.95;;;;;;;24.51;37.90;101489.16;10432765;28;20412;-78
2022/06/29 15:14:25;;;;;;;2.60;1.63;;;;;;;24.43;37.77;101476.06;10446825;28;20041;-81
2022/06/29 15:19:27;;;;;;;3.70;1.27;;;;;;;24.37;38.53;101469.06;10455506;28;20479;-79
2022/06/29 15:24:30;;;;;;;2.33;1.65;;;;;;;24.30;37.94;101478.09;10484222;28;20060;-79
2022/06/29 15:29:32;;;;;;;5.28;1.73;;;;;;;24.20;38.42;101479.34;10494297;28;20052;-79
2022/06/29 15:39:55;;;;;;;1.17;0.98;;;;;;;23.95;39.41;101484.19;10483341;28;20043;-80
2022/06/29 15:44:57;;;;;;;1.30;1.20;;;;;;;23.79;39.28;101468.44;10469626;28;20526;-80
2022/06/29 15:50:00;;;;;;;2.63;1.63;;;;;;;23.74;39.03;101475.88;10482350;28;20045;-78
2022/06/29 16:00:24;;;;;;;1.40;1.30;;;;;;;23.71;38.70;101501.00;10501333;28;20076;-82
2022/06/29 16:05:27;;;;;;;2.17;1.77;;;;;;;23.65;38.70;101482.78;10491025;28;20045;-81
2022/06/29 16:10:30;;;;;;;2.92;1.55;;;;;;;23.56;38.87;101488.44;10465061;28;20029;-81
2022/06/29 16:15:32;;;;;;;1.27;1.10;;;;;;;23.39;38.56;101495.06;10486078;28;20049;-77
2022/06/29 16:20:34;;;;;;;1.60;1.08;;;;;;;23.27;38.31;101492.28;10455583;28;20392;-80
2022/06/29 16:25:37;;;;;;;1.50;1.40;;;;;;;23.13;38.45;101484.19;10488952;28;20787;-78
2022/06/29 16:30:39;;;;;;;3.13;1.13;;;;;;;23.10;38.29;101487.69;10488403;28;20535;-79
2022/06/29 16:35:41;;;;;;;3.35;1.40;;;;;;;23.02;38.54;101493.34;10482333;28;20089;-80
2022/06/29 16:40:43;;;;;;;4.78;1.40;;;;;;;22.93;38.77;101485.06;10485550;28;20045;-79
2022/06/29 16:45:45;;;;;;;1.70;1.40;;;;;;;22.85;38.44;101474.75;10469342;28;20052;-79
2022/06/29 16:50:50;;;;;;;2.40;0.90;;;;;;;22.89;38.56;101481.28;10485802;28;20052;-78
2022/06/29 16:55:52;;;;;;;3.58;1.17;;;;;;;22.92;38.53;101477.81;10460489;28;20060;-81
2022/06/29 17:00:55;;;;;;;4.15;1.40;;;;;;;22.82;39.04;101483.84;10435799;28;20148;-81
2022/06/29 17:05:58;;;;;;;1.50;1.30;;;;;;;22.74;38.90;101470.72;10487917;28;20052;-80
2022/06/29 17:11:01;;;;;;;1.40;1.20;;;;;;;22.61;38.57;101472.66;10485896;28;20055;-78
2022/06/29 17:16:04;;;;;;;3.33;1.30;;;;;;;22.54;39.27;101470.38;10472042;28;20037;-78
2022/06/29 17:21:06;;;;;;;1.40;1.30;;;;;;;22.54;39.13;101469.56;10475301;28;20053;-77
2022/06/29 17:26:08;;;;;;;2.85;1.02;;;;;;;22.59;39.27;101457.38;10467726;28;20051;-78
2022/06/29 17:31:10;;;;;;;1.83;1.55;;;;;;;22.53;38.82;101463.16;10450553;28;20052;-77
2022/06/29 17:36:15;;;;;;;1.50;1.15;;;;;;;22.47;39.45;101467.31;10468301;28;20499;-79
2022/06/29 17:41:18;;;;;;;2.50;1.05;;;;;;;22.42;39.81;101461.13;10481687;28;20530;-76
2022/06/29 17:46:20;;;;;;;3.63;1.17;;;;;;;22.34;39.37;101459.22;10457039;28;20439;-77
2022/06/29 17:51:23;;;;;;;2.60;1.48;;;;;;;22.23;39.63;101458.81;10483716;28;20042;-76
2022/06/29 17:56:25;;;;;;;1.88;1.40;;;;;;;22.19;39.43;101458.66;10483109;28;20057;-78
2022/06/29 18:01:28;;;;;;;1.80;0.70;;;;;;;22.16;39.75;101464.94;10454183;28;20510;-77
2022/06/29 18:06:30;;;;;;;6.50;2.30;;;;;;;22.04;40.23;101455.59;10461180;28;20162;-77
2022/06/29 18:11:32;;;;;;;1.73;1.40;;;;;;;21.97;40.06;101461.72;10466332;28;20526;-78
2022/06/29 18:16:35;;;;;;;2.25;1.08;;;;;;;21.86;40.03;101455.72;10472190;28;20045;-78
2022/06/29 18:21:38;;;;;;;1.75;1.30;;;;;;;21.88;40.30;101458.19;10468528;28;20037;-79
2022/06/29 18:26:41;;;;;;;2.85;1.48;;;;;;;21.74;40.14;101466.81;10457532;28;20051;-77
2022/06/29 18:31:43;;;;;;;1.75;1.40;;;;;;;21.58;40.85;101483.31;10451292;28;20044;-75
2022/06/29 18:36:47;;;;;;;2.90;1.63;;;;;;;21.52;40.73;101473.50;10476797;28;20048;-76
2022/06/29 18:41:49;;;;;;;2.42;1.67;;;;;;;21.44;41.10;101465.13;10468081;28;20049;-75
2022/06/29 18:46:52;;;;;;;1.20;1.10;;;;;;;21.33;40.98;101470.25;10472520;28;20044;-74
2022/06/29 18:51:54;;;;;;;1.92;1.30;;;;;;;21.34;41.57;101483.06;10466845;28;20080;-75
2022/06/29 18:56:56;;;;;;;4.35;2.00;;;;;;;21.35;41.20;101479.97;10452597;28;20050;-83
2022/06/29 19:01:58;;;;;;;2.28;1.33;;;;;;;21.22;41.48;101485.72;10466192;28;20041;-79
2022/06/29 19:07:00;;;;;;;3.15;1.40;;;;;;;21.20;41.24;101479.66;10462674;28;20053;-80
2022/06/29 19:12:04;;;;;;;3.33;1.30;;;;;;;21.13;41.03;101477.34;10460585;28;20049;-80
2022/06/29 19:17:06;;;;;;;3.97;1.75;;;;;;;21.06;41.18;101477.03;10484243;28;20396;-82
2022/06/29 19:22:08;;;;;;;1.55;0.70;;;;;;;21.01;41.04;101468.84;10485072;28;20649;-76
2022/06/29 19:27:10;;;;;;;3.55;1.40;;;;;;;21.04;41.24;101468.19;10468739;28;20495;-75
2022/06/29 19:32:12;;;;;;;2.78;1.23;;;;;;;21.04;41.69;101462.59;10472913;28;20041;-77
2022/06/29 19:37:15;;;;;;;5.75;1.60;;;;;;;20.94;42.09;101469.34;10477437;28;20049;-81
2022/06/29 19:42:17;;;;;;;2.67;1.50;;;;;;;20.87;42.98;101473.81;10452363;28;20037;-78
2022/06/29 19:47:20;;;;;;;5.18;1.75;;;;;;;20.75;43.71;101491.19;10460045;28;20048;-84
2022/06/29 19:52:27;;;;;;;2.92;2.53;;;;;;;20.58;44.18;101486.44;10486829;28;20056;-79
2022/06/29 19:57:29;;;;;;;3.85;2.22;;;;;;;20.41;45.38;101486.44;10476450;28;20450;-77
2022/06/29 20:02:31;;;;;;;1.52;1.40;;;;;;;20.27;45.13;101489.34;10480816;28;20040;-78
2022/06/29 20:07:34;;;;;;;2.83;1.63;;;;;;;20.15;46.24;101481.63;10475714;28;20052;-78
2022/06/29 20:12:36;;;;;;;1.70;1.40;;;;;;;20.02;46.91;101485.38;10483826;28;20054;-87
2022/06/29 20:17:39;;;;;;;1.98;1.45;;;;;;;19.93;46.50;101501.22;10441004;28;20419;-82
2022/06/29 20:22:41;;;;;;;2.03;1.48;;;;;;;19.86;46.71;101498.09;10481427;28;20052;-87
2022/06/29 20:27:43;;;;;;;6.22;1.75;;;;;;;19.79;46.84;101503.34;10449488;28;20048;-85
2022/06/29 20:32:47;;;;;;;2.08;1.70;;;;;;;19.75;47.20;101505.94;10477585;28;20048;-82
2022/06/29 20:37:50;;;;;;;7.88;1.88;;;;;;;19.70;47.29;101499.69;10465608;28;20041;-79
2022/06/29 20:42:52;;;;;;;2.65;2.20;;;;;;;19.61;47.60;101498.81;10480671;28;20040;-89
2022/06/29 20:47:56;;;;;;;3.40;2.38;;;;;;;19.53;47.60;101498.44;10451197;28;20048;-89
2022/06/29 20:53:01;;;;;;;6.07;1.80;;;;;;;19.42;47.73;101497.06;10476370;28;20491;-77
2022/06/29 20:58:04;;;;;;;3.58;2.33;;;;;;;19.35;48.51;101516.19;10486181;28;20056;-78
2022/06/29 21:03:06;;;;;;;4.93;2.30;;;;;;;19.26;48.17;101516.16;10469388;28;20048;-78
2022/06/29 21:08:08;;;;;;;1.65;1.40;;;;;;;19.20;48.33;101527.72;10484708;28;20041;-77
2022/06/29 21:13:11;;;;;;;2.30;1.55;;;;;;;19.36;48.53;101515.06;10460423;28;20041;-79
2022/06/29 21:18:13;;;;;;;1.77;1.25;;;;;;;19.45;47.94;101517.91;10496078;28;20526;-78
2022/06/29 21:23:16;;;;;;;2.00;1.55;;;;;;;19.60;47.16;101525.03;10484843;28;20041;-78
2022/06/29 21:28:18;;;;;;;1.75;1.30;;;;;;;19.50;47.28;101518.56;10485940;28;20488;-78
2022/06/29 21:33:21;;;;;;;2.15;1.58;;;;;;;19.35;47.54;101518.97;10442607;28;20479;-83
2022/06/29 21:38:23;;;;;;;1.75;1.38;;;;;;;19.22;47.49;101537.41;10462554;28;20045;-83
2022/06/29 21:43:25;;;;;;;2.85;1.38;;;;;;;19.12;48.20;101546.03;10465172;28;20049;-82
2022/06/29 21:53:49;;;;;;;6.10;1.63;;;;;;;18.96;48.33;101550.31;10476887;28;20033;-82
2022/06/29 21:58:52;;;;;;;1.90;1.35;;;;;;;18.94;47.91;101547.84;10483343;28;20037;-82
2022/06/29 22:03:55;;;;;;;2.20;1.77;;;;;;;18.92;48.24;101539.00;10430930;28;20140;-83
2022/06/29 22:08:57;;;;;;;1.85;1.45;;;;;;;18.88;49.15;101548.28;10471479;28;20411;-84
2022/06/29 22:13:59;;;;;;;3.50;1.60;;;;;;;18.86;48.76;101551.38;10458876;28;20048;-85
2022/06/29 22:19:02;;;;;;;1.85;1.23;;;;;;;18.90;48.85;101544.03;10475411;28;20049;-85
2022/06/29 22:24:04;;;;;;;2.30;1.40;;;;;;;18.97;49.25;101547.22;10447191;28;20435;-89
2022/06/29 22:29:07;;;;;;;2.42;1.40;;;;;;;19.11;49.27;101560.25;10479200;28;20059;-95
2022/06/29 22:34:09;;;;;;;2.70;1.42;;;;;;;18.88;49.90;101554.66;10444150;28;20041;-82
2022/06/29 22:39:11;;;;;;;1.88;1.50;;;;;;;18.58;51.34;101550.63;10471970;28;20574;-84
2022/06/29 22:44:13;;;;;;;2.78;1.38;;;;;;;18.43;52.55;101553.75;10454153;28;20041;-86
2022/06/29 22:49:17;;;;;;;1.50;1.30;;;;;;;18.31;53.48;101550.66;10488440;28;20064;-87
2022/06/29 22:54:19;;;;;;;1.77;1.38;;;;;;;18.32;53.76;101552.31;10467266;28;20044;-85
2022/06/29 22:59:21;;;;;;;2.97;1.60;;;;;;;18.15;55.16;101544.63;10476753;28;20526;-86
2022/06/29 23:04:23;;;;;;;2.70;1.38;;;;;;;17.98;55.44;101531.34;10462717;28;20518;-86
2022/06/29 23:09:26;;;;;;;3.25;1.60;;;;;;;17.86;56.45;101544.91;10474063;28;20056;-85
2022/06/29 23:14:28;;;;;;;1.50;1.40;;;;;;;17.77;57.21;101547.59;10485245;28;20494;-86
2022/06/29 23:19:30;;;;;;;1.80;1.33;;;;;;;17.64;57.46;101545.59;10482462;28;20055;-86
2022/06/29 23:24:32;;;;;;;1.80;1.30;;;;;;;17.52;57.41;101553.59;10492277;28;20029;-84
2022/06/29 23:29:35;;;;;;;3.00;1.10;;;;;;;17.40;58.00;101558.84;10511264;28;20045;-86
2022/06/29 23:34:37;;;;;;;1.63;1.23;;;;;;;17.35;58.41;101539.47;10482881;28;20033;-86
2022/06/29 23:39:39;;;;;;;2.28;1.58;;;;;;;17.24;59.07;101558.28;10492528;28;20408;-85
2022/06/29 23:44:41;;;;;;;2.67;1.70;;;;;;;17.15;60.04;101551.75;10461032;28;20527;-86
2022/06/29 23:49:44;;;;;;;2.33;1.85;;;;;;;17.08;60.71;101557.69;10456906;28;20036;-86
2022/06/29 23:54:46;;;;;;;2.30;1.60;;;;;;;16.99;61.07;101565.03;10491939;28;20048;-86